Time;durP1;ratioP1;P1;durP2;ratioP2;P2;SDS_P1;SDS_P2;PMS_P1;PMS_P2;Temp;Humidity;BMP_temperature;BMP_pressure;BME280_temperature;BME280_humidity;BME280_pressure;Samples;Min_cycle;Max_cycle;Signal;HPM_P1;HPM_P2
2023/04/20 00:01:51;;;;;;;2.42;2.22;;;18.80;53.30;;;;;;5015435;28;20237;-72
2023/04/20 00:04:17;;;;;;;2.63;2.35;;;18.90;53.40;;;;;;5032065;28;20531;-72
2023/04/20 00:06:44;;;;;;;2.08;1.98;;;18.80;53.30;;;;;;5031941;28;20199;-72
2023/04/20 00:09:12;;;;;;;2.30;2.20;;;18.90;53.40;;;;;;5033319;28;20196;-72
2023/04/20 00:11:38;;;;;;;2.53;2.33;;;18.80;53.30;;;;;;5032354;28;20280;-72
2023/04/20 00:14:04;;;;;;;2.40;2.20;;;18.90;53.40;;;;;;5031946;28;20647;-72
2023/04/20 00:16:31;;;;;;;2.20;2.00;;;18.90;53.40;;;;;;5046539;28;20183;-72
2023/04/20 00:18:58;;;;;;;2.70;2.50;;;18.80;53.20;;;;;;5031864;28;20187;-72
2023/04/20 00:21:24;;;;;;;2.42;2.22;;;18.90;53.30;;;;;;5038955;28;20230;-72
2023/04/20 00:23:50;;;;;;;2.72;2.40;;;18.80;53.20;;;;;;5031531;28;20220;-71
2023/04/20 00:26:17;;;;;;;2.50;2.20;;;18.90;53.30;;;;;;5031971;28;20223;-72
2023/04/20 00:28:50;;;;;;;2.65;2.25;;;18.90;53.30;;;;;;5016375;28;20184;-72
2023/04/20 00:31:17;;;;;;;2.53;2.25;;;18.80;53.20;;;;;;5032710;28;20218;-72
2023/04/20 00:33:43;;;;;;;2.50;2.30;;;18.90;53.30;;;;;;5032619;28;20194;-71
2023/04/20 00:36:08;;;;;;;2.17;2.08;;;18.90;53.90;;;;;;5031501;28;20195;-72
2023/04/20 00:38:35;;;;;;;2.60;2.40;;;18.90;53.30;;;;;;5031699;28;20229;-72
2023/04/20 00:41:01;;;;;;;2.40;2.20;;;18.90;53.30;;;;;;5031306;28;20187;-72
2023/04/20 00:43:27;;;;;;;2.03;1.83;;;18.90;53.20;;;;;;5031606;28;20187;-72
2023/04/20 00:45:52;;;;;;;2.60;2.40;;;18.90;53.30;;;;;;5031539;28;20182;-71
2023/04/20 00:48:19;;;;;;;2.15;1.95;;;18.80;53.20;;;;;;5031105;28;20194;-72
2023/04/20 00:50:47;;;;;;;1.92;1.83;;;18.90;53.20;;;;;;5031005;28;20733;-72
2023/04/20 00:53:13;;;;;;;1.70;1.60;;;18.90;53.20;;;;;;5032330;28;20250;-72
2023/04/20 00:55:42;;;;;;;2.50;2.30;;;18.90;53.20;;;;;;5025097;28;20262;-72
2023/04/20 00:58:11;;;;;;;2.47;2.03;;;18.80;53.10;;;;;;5031566;28;20187;-72
2023/04/20 01:00:39;;;;;;;1.98;1.88;;;18.90;53.20;;;;;;5031201;28;20179;-72
2023/04/20 01:03:06;;;;;;;2.10;1.90;;;18.90;53.20;;;;;;5032250;28;20215;-72
2023/04/20 01:05:32;;;;;;;2.15;1.95;;;18.90;53.20;;;;;;5031119;28;20199;-72
2023/04/20 01:07:58;;;;;;;2.15;2.05;;;18.90;53.20;;;;;;5032534;28;20203;-72
2023/04/20 01:10:28;;;;;;;2.10;2.00;;;18.80;53.10;;;;;;5032906;28;20183;-72
2023/04/20 01:12:54;;;;;;;2.17;2.08;;;18.80;53.10;;;;;;5030718;28;20242;-72
2023/04/20 01:15:20;;;;;;;1.73;1.63;;;18.90;53.20;;;;;;5031511;28;20187;-72
2023/04/20 01:17:46;;;;;;;2.20;2.00;;;18.80;53.10;;;;;;5030900;28;20179;-72
2023/04/20 01:20:12;;;;;;;2.13;2.03;;;18.80;53.10;;;;;;5013568;28;20200;-72
2023/04/20 01:22:53;;;;;;;2.20;2.00;;;18.80;53.00;;;;;;5031049;28;20210;-72
2023/04/20 01:25:19;;;;;;;1.73;1.63;;;18.80;53.00;;;;;;5032509;28;20333;-72
2023/04/20 01:27:45;;;;;;;2.28;2.08;;;18.80;53.00;;;;;;5030815;28;20638;-72
2023/04/20 01:30:12;;;;;;;2.63;2.00;;;18.80;53.00;;;;;;5030813;28;20453;-72
2023/04/20 01:32:39;;;;;;;3.67;2.05;;;18.80;53.00;;;;;;5010900;28;20208;-72
2023/04/20 01:35:06;;;;;;;1.88;1.77;;;18.80;53.00;;;;;;5027425;28;20192;-72
2023/04/20 01:37:32;;;;;;;2.20;2.00;;;18.80;53.60;;;;;;5031040;28;20218;-71
2023/04/20 01:40:02;;;;;;;1.98;1.88;;;18.80;53.00;;;;;;5031271;28;20187;-72
2023/04/20 01:42:28;;;;;;;1.90;1.80;;;18.80;53.00;;;;;;5032759;28;20269;-71
2023/04/20 01:44:55;;;;;;;2.55;2.30;;;18.80;53.00;;;;;;5032008;28;20210;-72
2023/04/20 01:47:21;;;;;;;2.17;1.98;;;18.80;53.00;;;;;;5030709;28;20226;-72
2023/04/20 01:49:47;;;;;;;2.47;1.70;;;18.80;53.00;;;;;;5010923;28;20192;-72
2023/04/20 01:52:12;;;;;;;1.77;1.67;;;18.80;53.00;;;;;;5029457;28;20218;-72
2023/04/20 01:54:40;;;;;;;2.05;1.85;;;18.80;53.00;;;;;;5031851;28;20193;-72
2023/04/20 01:57:05;;;;;;;1.95;1.85;;;18.80;53.00;;;;;;5033134;28;20191;-72
2023/04/20 01:59:31;;;;;;;2.10;1.95;;;18.90;53.00;;;;;;5026759;28;20198;-72
2023/04/20 02:02:00;;;;;;;2.10;2.00;;;18.80;53.00;;;;;;5034615;28;20262;-72
2023/04/20 02:04:25;;;;;;;1.83;1.73;;;18.80;53.00;;;;;;5025619;28;20191;-72
2023/04/20 02:06:51;;;;;;;1.80;1.70;;;18.80;52.90;;;;;;5034714;28;20194;-72
2023/04/20 02:09:17;;;;;;;1.77;1.67;;;18.90;53.00;;;;;;5031960;28;20190;-72
2023/04/20 02:11:43;;;;;;;2.20;2.00;;;18.90;53.00;;;;;;5014653;28;20220;-72
2023/04/20 02:14:08;;;;;;;1.80;1.70;;;18.80;53.00;;;;;;5033688;28;20183;-71
2023/04/20 02:16:35;;;;;;;1.88;1.77;;;18.80;52.90;;;;;;5001998;28;20230;-71
2023/04/20 02:19:01;;;;;;;1.80;1.70;;;18.80;52.90;;;;;;5033864;28;20627;-71
2023/04/20 02:21:27;;;;;;;2.00;1.80;;;18.80;52.90;;;;;;5042315;28;20302;-71
2023/04/20 02:23:53;;;;;;;2.10;2.00;;;18.80;52.90;;;;;;5042419;28;20187;-72
2023/04/20 02:26:19;;;;;;;2.25;2.05;;;18.80;52.90;;;;;;5035003;28;20317;-70
2023/04/20 02:28:46;;;;;;;1.90;1.80;;;18.80;52.90;;;;;;5034112;28;20282;-72
2023/04/20 02:31:11;;;;;;;1.95;1.85;;;18.80;52.90;;;;;;5050349;28;20195;-72
2023/04/20 02:33:37;;;;;;;2.00;1.90;;;18.80;52.90;;;;;;5033610;28;20190;-72
2023/04/20 02:36:04;;;;;;;2.58;1.80;;;18.80;52.90;;;;;;5033864;28;20191;-72
2023/04/20 02:38:31;;;;;;;2.33;2.20;;;18.90;52.90;;;;;;5034039;28;20269;-72
2023/04/20 02:40:57;;;;;;;1.73;1.63;;;18.80;53.40;;;;;;5017432;28;20248;-72
2023/04/20 02:43:23;;;;;;;2.25;2.05;;;18.80;52.80;;;;;;5033906;28;20183;-72
2023/04/20 02:45:49;;;;;;;1.90;1.80;;;18.90;52.90;;;;;;5033850;28;20663;-71
2023/04/20 02:48:15;;;;;;;2.80;1.70;;;18.90;53.00;;;;;;5033790;28;20213;-71
2023/04/20 02:50:41;;;;;;;2.00;1.80;;;18.80;52.80;;;;;;5034035;28;20183;-72
2023/04/20 02:53:16;;;;;;;1.75;1.65;;;18.90;52.90;;;;;;5017697;28;20215;-72
2023/04/20 02:55:45;;;;;;;1.95;1.85;;;18.90;52.90;;;;;;5017446;28;20237;-72
2023/04/20 02:58:21;;;;;;;1.77;1.67;;;18.90;52.90;;;;;;5033149;28;20186;-72
2023/04/20 03:01:07;;;;;;;2.22;2.03;;;18.90;52.90;;;;;;5022922;28;20215;-71
2023/04/20 03:03:35;;;;;;;1.80;1.70;;;18.80;52.80;;;;;;5033354;28;20226;-72
2023/04/20 03:06:03;;;;;;;2.25;2.05;;;18.90;52.90;;;;;;5033062;28;20199;-72
2023/04/20 03:08:29;;;;;;;2.20;2.00;;;18.80;52.80;;;;;;5015421;28;20608;-72
2023/04/20 03:10:59;;;;;;;2.53;1.90;;;18.80;52.80;;;;;;5033205;28;20187;-72
2023/04/20 03:13:25;;;;;;;2.20;1.90;;;18.80;52.80;;;;;;5016644;28;20188;-72
2023/04/20 03:15:54;;;;;;;2.10;2.00;;;18.80;52.80;;;;;;5032889;28;20183;-72
2023/04/20 03:18:33;;;;;;;1.70;1.60;;;18.80;52.80;;;;;;5025630;28;20190;-72
2023/04/20 03:20:59;;;;;;;2.42;1.85;;;18.80;52.80;;;;;;5032569;28;20183;-72
2023/04/20 03:23:27;;;;;;;1.70;1.60;;;18.90;52.90;;;;;;5032798;28;20190;-72
2023/04/20 03:25:53;;;;;;;1.90;1.77;;;18.80;52.80;;;;;;5032635;28;20183;-72
2023/04/20 03:28:49;;;;;;;1.98;1.88;;;18.80;52.80;;;;;;5027953;28;20245;-72
2023/04/20 03:31:19;;;;;;;1.70;1.60;;;18.90;52.80;;;;;;5016385;28;20247;-72
2023/04/20 03:33:45;;;;;;;1.80;1.70;;;18.80;52.80;;;;;;5032281;28;20183;-72
2023/04/20 03:36:11;;;;;;;2.45;2.25;;;18.90;52.80;;;;;;5032492;28;20201;-72
2023/04/20 03:38:37;;;;;;;1.83;1.73;;;18.80;52.70;;;;;;5032479;28;20644;-72
2023/04/20 03:41:02;;;;;;;1.80;1.70;;;18.90;52.80;;;;;;5032524;28;20214;-71
2023/04/20 03:43:28;;;;;;;1.98;1.83;;;18.90;52.80;;;;;;5032114;28;20241;-72
2023/04/20 03:45:54;;;;;;;2.20;2.00;;;18.80;52.70;;;;;;5009027;28;20188;-72
2023/04/20 03:48:20;;;;;;;2.10;1.90;;;18.80;52.70;;;;;;5031374;28;20282;-72
2023/04/20 03:50:46;;;;;;;2.20;2.00;;;18.90;52.80;;;;;;5032231;28;20179;-72
2023/04/20 03:53:12;;;;;;;1.90;1.80;;;18.80;52.70;;;;;;5031828;28;20312;-72
2023/04/20 03:55:38;;;;;;;2.10;2.00;;;18.80;52.70;;;;;;5032226;28;20274;-72
2023/04/20 03:58:08;;;;;;;2.08;1.98;;;18.90;52.80;;;;;;5029477;28;20184;-72
2023/04/20 04:01:02;;;;;;;2.28;2.08;;;18.80;52.80;;;;;;5033099;28;20193;-72
2023/04/20 04:03:28;;;;;;;2.00;1.90;;;18.80;52.80;;;;;;5020283;28;20192;-72
2023/04/20 04:05:53;;;;;;;1.77;1.67;;;18.90;52.90;;;;;;5007705;28;20239;-72
2023/04/20 04:08:19;;;;;;;2.10;2.00;;;18.80;52.70;;;;;;5030991;28;20183;-72
2023/04/20 04:10:45;;;;;;;2.88;2.13;;;18.80;52.80;;;;;;5031695;28;20609;-72
2023/04/20 04:13:11;;;;;;;2.00;1.80;;;18.90;52.80;;;;;;5032681;28;20207;-72
2023/04/20 04:15:37;;;;;;;2.20;2.10;;;18.80;52.70;;;;;;5015315;28;20190;-72
2023/04/20 04:18:08;;;;;;;2.10;2.00;;;18.80;52.70;;;;;;5048369;28;20237;-72
2023/04/20 04:20:36;;;;;;;2.40;2.20;;;18.80;52.70;;;;;;5031582;28;20179;-72
2023/04/20 04:23:01;;;;;;;2.10;1.90;;;18.80;52.70;;;;;;5031393;28;20257;-72
2023/04/20 04:25:37;;;;;;;2.20;2.00;;;18.80;52.70;;;;;;5015845;28;20274;-72
2023/04/20 04:28:03;;;;;;;1.80;1.70;;;18.80;52.80;;;;;;5030981;28;20197;-72
2023/04/20 04:30:31;;;;;;;2.10;2.00;;;18.80;52.80;;;;;;5040141;28;20191;-72
2023/04/20 04:32:58;;;;;;;2.28;2.10;;;18.80;52.70;;;;;;5014584;28;20298;-72
2023/04/20 04:35:25;;;;;;;1.88;1.77;;;18.90;52.80;;;;;;5031094;28;20658;-72
2023/04/20 04:37:52;;;;;;;2.25;2.15;;;18.80;52.70;;;;;;5031513;28;20191;-72
2023/04/20 04:40:19;;;;;;;2.10;1.90;;;18.80;52.80;;;;;;5031131;28;20191;-72
2023/04/20 04:42:47;;;;;;;2.08;1.88;;;18.80;52.70;;;;;;5030983;28;20242;-72
2023/04/20 04:45:13;;;;;;;1.85;1.75;;;18.80;52.70;;;;;;5031022;28;20187;-72
2023/04/20 04:47:42;;;;;;;1.98;1.88;;;18.80;52.70;;;;;;5031443;28;20183;-72
2023/04/20 04:50:09;;;;;;;1.85;1.75;;;18.80;52.70;;;;;;5011673;28;20279;-72
2023/04/20 04:52:35;;;;;;;2.67;1.98;;;18.90;52.80;;;;;;5014725;28;20211;-72
2023/04/20 04:55:02;;;;;;;2.13;1.80;;;18.90;52.80;;;;;;5031255;28;20183;-72
2023/04/20 04:57:28;;;;;;;1.77;1.67;;;18.80;52.70;;;;;;5032393;28;20261;-72
2023/04/20 04:59:54;;;;;;;1.88;1.77;;;18.90;52.80;;;;;;5024894;28;20278;-72
2023/04/20 05:02:19;;;;;;;1.90;1.80;;;18.80;52.70;;;;;;5029215;28;20210;-72
2023/04/20 05:04:45;;;;;;;1.75;1.60;;;18.80;52.70;;;;;;5032816;28;20191;-73
2023/04/20 05:07:12;;;;;;;2.10;2.00;;;18.80;52.70;;;;;;5031901;28;20195;-72
2023/04/20 05:09:39;;;;;;;2.00;1.90;;;18.80;52.70;;;;;;5031693;28;20214;-72
2023/04/20 05:12:05;;;;;;;1.80;1.70;;;18.90;52.80;;;;;;5015246;28;20219;-72
2023/04/20 05:14:31;;;;;;;2.80;2.35;;;18.90;52.80;;;;;;5031625;28;20183;-72
2023/04/20 05:17:00;;;;;;;1.80;1.70;;;18.90;52.80;;;;;;5031100;28;20191;-74
2023/04/20 05:19:26;;;;;;;2.15;1.95;;;18.90;52.80;;;;;;5030799;28;20191;-73
2023/04/20 05:21:52;;;;;;;1.80;1.70;;;18.90;52.80;;;;;;5030941;28;20211;-73
2023/04/20 05:24:18;;;;;;;2.47;2.08;;;18.90;52.80;;;;;;5031937;28;20288;-72
2023/04/20 05:26:45;;;;;;;1.88;1.77;;;18.90;52.80;;;;;;5031596;28;20194;-72
2023/04/20 05:29:11;;;;;;;2.08;1.92;;;18.90;52.80;;;;;;5031957;28;20198;-73
2023/04/20 05:31:36;;;;;;;2.00;1.90;;;18.90;52.80;;;;;;5032757;28;20309;-72
2023/04/20 05:34:02;;;;;;;2.88;2.08;;;18.90;52.80;;;;;;5015090;28;20288;-73
2023/04/20 05:36:29;;;;;;;1.98;1.88;;;18.90;52.80;;;;;;5050828;28;20202;-73
2023/04/20 05:38:55;;;;;;;2.15;1.95;;;18.90;52.80;;;;;;5034851;28;20206;-72
2023/04/20 05:41:26;;;;;;;2.28;2.08;;;18.90;52.80;;;;;;5034654;28;20207;-73
2023/04/20 05:43:55;;;;;;;2.30;2.00;;;18.90;52.80;;;;;;5034997;28;20215;-73
2023/04/20 05:46:22;;;;;;;2.13;1.90;;;18.90;52.80;;;;;;5016767;28;20188;-73
2023/04/20 05:48:48;;;;;;;2.78;2.20;;;18.90;52.80;;;;;;5034563;28;20195;-73
2023/04/20 05:51:13;;;;;;;2.03;1.90;;;18.90;52.80;;;;;;5018320;28;20187;-72
2023/04/20 05:53:39;;;;;;;2.38;2.05;;;18.90;52.80;;;;;;5035612;28;20249;-73
2023/04/20 05:56:06;;;;;;;2.40;2.20;;;18.90;52.80;;;;;;5034562;28;20187;-73
2023/04/20 05:58:34;;;;;;;2.30;2.10;;;18.90;52.80;;;;;;5035597;28;20203;-73
2023/04/20 06:01:01;;;;;;;2.30;2.00;;;18.90;52.80;;;;;;5011975;28;20193;-72
2023/04/20 06:03:27;;;;;;;2.30;2.10;;;18.90;52.80;;;;;;5034234;28;20610;-73
2023/04/20 06:05:52;;;;;;;2.78;2.58;;;18.90;52.80;;;;;;5035619;28;20191;-73
2023/04/20 06:08:18;;;;;;;2.38;2.17;;;18.90;52.80;;;;;;5035225;28;20190;-72
2023/04/20 06:10:44;;;;;;;2.65;2.40;;;18.90;52.80;;;;;;5034227;28;20210;-73
2023/04/20 06:13:10;;;;;;;3.25;2.22;;;18.90;52.80;;;;;;5033858;28;20230;-72
2023/04/20 06:15:35;;;;;;;2.60;2.40;;;18.90;52.80;;;;;;5022694;28;20184;-73
2023/04/20 06:18:02;;;;;;;2.17;2.08;;;18.90;52.80;;;;;;5030724;28;20298;-73
2023/04/20 06:20:27;;;;;;;3.58;2.42;;;18.90;52.80;;;;;;5017641;28;20191;-73
2023/04/20 06:22:53;;;;;;;2.25;2.15;;;18.90;53.00;;;;;;5034127;28;20207;-72
2023/04/20 06:25:19;;;;;;;4.78;2.22;;;18.90;53.00;;;;;;5034592;28;20572;-72
2023/04/20 06:27:45;;;;;;;2.53;2.03;;;18.90;53.10;;;;;;5035951;28;20187;-72
2023/04/20 06:30:12;;;;;;;2.38;1.90;;;18.90;53.00;;;;;;5039322;28;20202;-72
2023/04/20 06:32:38;;;;;;;2.40;2.17;;;19.00;53.10;;;;;;5026489;28;20219;-72
2023/04/20 06:35:05;;;;;;;2.30;2.10;;;18.90;53.00;;;;;;5034603;28;20237;-72
2023/04/20 06:37:31;;;;;;;2.25;2.05;;;19.00;53.00;;;;;;5017124;28;20738;-72
2023/04/20 06:39:57;;;;;;;3.65;2.05;;;19.00;53.00;;;;;;5033485;28;20269;-72
2023/04/20 06:42:23;;;;;;;2.58;2.38;;;19.00;53.00;;;;;;5016735;28;20245;-72
2023/04/20 06:44:49;;;;;;;3.97;1.95;;;19.00;53.00;;;;;;5033800;28;20183;-72
2023/04/20 06:47:15;;;;;;;2.65;2.38;;;19.00;53.00;;;;;;5033428;28;20278;-72
2023/04/20 06:49:42;;;;;;;2.65;2.30;;;19.00;52.90;;;;;;5033442;28;20280;-72
2023/04/20 06:52:08;;;;;;;2.72;2.28;;;19.00;52.90;;;;;;5016775;28;20250;-72
2023/04/20 06:54:34;;;;;;;2.22;2.03;;;19.00;52.90;;;;;;5033099;28;20184;-72
2023/04/20 06:57:00;;;;;;;3.00;2.25;;;19.00;52.90;;;;;;5033405;28;20337;-72
2023/04/20 06:59:26;;;;;;;2.42;2.22;;;19.00;52.90;;;;;;5033034;28;20187;-72
2023/04/20 07:01:51;;;;;;;3.97;2.13;;;19.00;52.90;;;;;;5013381;28;20274;-72
2023/04/20 07:04:17;;;;;;;3.60;2.70;;;19.00;52.90;;;;;;5032808;28;20195;-72
2023/04/20 07:06:43;;;;;;;2.65;2.45;;;19.00;52.90;;;;;;5016925;28;20191;-72
2023/04/20 07:09:08;;;;;;;2.58;2.38;;;19.00;52.90;;;;;;5032901;28;20199;-72
2023/04/20 07:11:34;;;;;;;4.53;2.42;;;19.00;52.90;;;;;;5032893;28;20222;-73
2023/04/20 07:14:00;;;;;;;2.90;2.60;;;19.00;52.90;;;;;;5034129;28;20209;-72
2023/04/20 07:16:26;;;;;;;7.75;2.60;;;19.00;52.90;;;;;;5032867;28;20183;-72
2023/04/20 07:18:51;;;;;;;4.53;2.83;;;19.00;52.90;;;;;;5033106;28;20658;-73
2023/04/20 07:21:17;;;;;;;2.90;2.65;;;19.00;52.90;;;;;;5032614;28;20222;-72
2023/04/20 07:23:43;;;;;;;3.88;2.47;;;19.00;52.90;;;;;;5032665;28;20274;-72
2023/04/20 07:26:09;;;;;;;2.78;2.25;;;19.00;52.90;;;;;;5033963;28;20180;-72
2023/04/20 07:28:35;;;;;;;3.22;2.92;;;19.00;52.90;;;;;;5033515;28;20195;-72
2023/04/20 07:31:01;;;;;;;3.08;2.70;;;19.00;52.90;;;;;;5033792;28;20266;-72
2023/04/20 07:33:28;;;;;;;2.55;2.35;;;19.00;52.80;;;;;;5032263;28;20248;-72
2023/04/20 07:35:54;;;;;;;2.58;2.38;;;19.00;52.90;;;;;;5033834;28;20544;-72
2023/04/20 07:38:20;;;;;;;4.05;2.30;;;19.00;52.90;;;;;;5032588;28;20190;-72
2023/04/20 07:40:46;;;;;;;2.42;2.22;;;19.00;52.90;;;;;;5032748;28;20256;-72
2023/04/20 07:43:11;;;;;;;3.03;2.75;;;19.00;52.90;;;;;;5032329;28;20215;-72
2023/04/20 07:45:40;;;;;;;3.22;2.35;;;19.10;53.00;;;;;;5032388;28;20195;-73
2023/04/20 07:48:08;;;;;;;3.85;2.70;;;19.00;52.90;;;;;;5015866;28;20228;-72
2023/04/20 07:50:34;;;;;;;2.67;2.47;;;19.00;52.90;;;;;;5032274;28;20207;-72
2023/04/20 07:53:01;;;;;;;3.05;2.80;;;19.00;52.90;;;;;;5033024;28;20218;-72
2023/04/20 07:55:26;;;;;;;3.10;2.60;;;19.00;53.40;;;;;;5031500;28;20196;-72
2023/04/20 07:57:52;;;;;;;2.60;2.40;;;19.00;52.90;;;;;;5033389;28;20194;-73
2023/04/20 08:00:18;;;;;;;2.95;2.65;;;19.00;52.90;;;;;;5033536;28;20195;-72
2023/04/20 08:02:44;;;;;;;2.28;2.10;;;19.00;52.90;;;;;;5031863;28;20298;-72
2023/04/20 08:05:10;;;;;;;3.15;2.40;;;19.00;52.90;;;;;;5032346;28;20252;-73
2023/04/20 08:07:36;;;;;;;3.67;2.35;;;19.00;52.90;;;;;;5033030;28;20214;-72
2023/04/20 08:10:03;;;;;;;3.47;2.95;;;19.00;52.90;;;;;;5031930;28;20195;-73
2023/04/20 08:12:29;;;;;;;2.72;2.50;;;19.00;52.90;;;;;;5032676;28;20215;-72
2023/04/20 08:14:59;;;;;;;2.47;2.28;;;19.00;52.90;;;;;;5015506;28;20187;-72
2023/04/20 08:17:25;;;;;;;2.53;2.33;;;19.10;53.00;;;;;;5032765;28;20187;-73
2023/04/20 08:19:51;;;;;;;3.00;2.70;;;19.00;52.90;;;;;;5031646;28;20731;-72
2023/04/20 08:22:17;;;;;;;2.53;2.33;;;19.00;52.90;;;;;;5031886;28;20293;-72
2023/04/20 08:24:42;;;;;;;2.55;2.20;;;19.00;52.90;;;;;;5032675;28;20195;-72
2023/04/20 08:27:08;;;;;;;2.28;2.08;;;19.00;52.90;;;;;;5031124;28;20241;-72
2023/04/20 08:29:34;;;;;;;2.53;2.33;;;19.10;52.90;;;;;;5031747;28;20253;-73
2023/04/20 08:32:00;;;;;;;2.90;2.28;;;19.00;52.80;;;;;;5031429;28;20807;-72
2023/04/20 08:34:25;;;;;;;2.30;2.10;;;19.00;52.90;;;;;;5025346;28;20191;-72
2023/04/20 08:36:51;;;;;;;2.20;2.05;;;19.10;53.00;;;;;;5031725;28;20233;-72
2023/04/20 08:39:22;;;;;;;2.20;2.10;;;19.00;52.80;;;;;;5031299;28;20183;-72
2023/04/20 08:41:52;;;;;;;2.47;2.28;;;19.10;52.90;;;;;;5032423;28;20215;-72
2023/04/20 08:44:19;;;;;;;2.03;1.85;;;19.10;52.90;;;;;;5031189;28;20685;-72
2023/04/20 08:46:47;;;;;;;2.53;1.88;;;19.00;52.80;;;;;;5031342;28;20195;-72
2023/04/20 08:49:18;;;;;;;2.20;2.00;;;19.10;52.90;;;;;;5031302;28;20704;-72
2023/04/20 08:51:46;;;;;;;2.85;2.22;;;19.10;52.90;;;;;;5014803;28;20226;-72
2023/04/20 08:54:12;;;;;;;2.17;1.98;;;19.10;53.00;;;;;;5032349;28;20187;-72
2023/04/20 08:56:44;;;;;;;2.30;2.20;;;19.10;52.90;;;;;;5030176;28;20195;-73
2023/04/20 08:59:12;;;;;;;2.53;2.20;;;19.10;53.00;;;;;;5031417;28;20187;-72
2023/04/20 09:01:40;;;;;;;2.85;2.20;;;19.10;53.00;;;;;;5030729;28;20260;-73
2023/04/20 09:04:23;;;;;;;2.35;2.15;;;19.10;53.00;;;;;;5032342;28;20214;-72
2023/04/20 09:06:54;;;;;;;2.53;2.00;;;19.10;53.00;;;;;;5023623;28;20183;-72
2023/04/20 09:09:23;;;;;;;2.17;1.98;;;19.10;53.00;;;;;;5027584;28;20223;-72
2023/04/20 09:12:04;;;;;;;1.85;1.75;;;19.10;52.90;;;;;;5039774;28;20649;-72
2023/04/20 09:14:42;;;;;;;1.90;1.80;;;19.10;53.00;;;;;;5030611;28;20198;-72
2023/04/20 09:17:07;;;;;;;2.10;1.90;;;19.10;52.90;;;;;;5030919;28;20565;-72
2023/04/20 09:19:33;;;;;;;2.10;1.90;;;19.10;52.90;;;;;;5030853;28;20203;-72
2023/04/20 09:22:02;;;;;;;2.10;1.90;;;19.10;53.00;;;;;;5031849;28;20226;-72
2023/04/20 09:24:37;;;;;;;1.98;1.88;;;19.10;53.00;;;;;;5031739;28;20195;-73
2023/04/20 09:27:15;;;;;;;2.20;2.00;;;19.10;52.90;;;;;;5027098;28;20195;-72
2023/04/20 09:29:41;;;;;;;2.13;1.95;;;19.10;52.90;;;;;;5031150;28;20191;-73
2023/04/20 09:32:07;;;;;;;1.80;1.70;;;19.10;53.00;;;;;;5027461;28;20277;-72
2023/04/20 09:34:43;;;;;;;2.00;1.90;;;19.10;52.90;;;;;;5028530;28;20222;-72
2023/04/20 09:37:12;;;;;;;2.15;1.95;;;19.10;53.00;;;;;;5030879;28;20187;-72
2023/04/20 09:39:43;;;;;;;1.80;1.70;;;19.10;52.90;;;;;;5030487;28;20191;-72
2023/04/20 09:42:14;;;;;;;1.70;1.60;;;19.10;52.90;;;;;;5030680;28;20211;-72
2023/04/20 09:44:42;;;;;;;1.83;1.73;;;19.10;53.50;;;;;;5031731;28;20206;-73
2023/04/20 09:47:08;;;;;;;1.70;1.60;;;19.20;52.90;;;;;;5030771;28;20247;-73
2023/04/20 09:49:39;;;;;;;1.70;1.60;;;19.10;52.90;;;;;;5030951;28;20287;-73
2023/04/20 09:52:05;;;;;;;1.40;1.30;;;19.10;52.90;;;;;;5030184;28;20286;-74
2023/04/20 09:54:31;;;;;;;1.77;1.67;;;19.10;52.90;;;;;;5030529;28;20728;-73
2023/04/20 09:57:00;;;;;;;1.40;1.30;;;19.10;52.80;;;;;;5014330;28;20183;-72
2023/04/20 09:59:27;;;;;;;2.70;1.73;;;19.10;52.80;;;;;;5030784;28;20187;-72
2023/04/20 10:01:53;;;;;;;1.60;1.50;;;19.10;52.90;;;;;;5030426;28;20263;-72
2023/04/20 10:04:19;;;;;;;2.20;1.90;;;19.20;53.00;;;;;;5031553;28;20215;-72
2023/04/20 10:06:54;;;;;;;1.90;1.80;;;19.10;52.80;;;;;;5013750;28;20193;-72
2023/04/20 10:09:24;;;;;;;2.20;2.00;;;19.20;52.90;;;;;;5030400;28;20202;-72
2023/04/20 10:11:51;;;;;;;2.20;2.00;;;19.20;52.90;;;;;;5030478;28;20214;-73
2023/04/20 10:14:23;;;;;;;2.60;2.22;;;19.20;52.90;;;;;;5005530;28;20180;-73
2023/04/20 10:17:03;;;;;;;3.17;2.80;;;19.20;52.90;;;;;;5030556;28;20298;-73
2023/04/20 10:19:46;;;;;;;4.25;3.60;;;19.20;53.00;;;;;;5031254;28;20188;-73
2023/04/20 10:22:29;;;;;;;5.38;4.72;;;19.20;52.90;;;;;;5033757;28;20211;-72
2023/04/20 10:24:55;;;;;;;8.40;6.28;;;19.20;52.90;;;;;;5017687;28;20211;-73
2023/04/20 10:27:21;;;;;;;10.73;7.38;;;19.20;52.80;;;;;;5034848;28;20640;-74
2023/04/20 10:29:47;;;;;;;9.55;7.28;;;19.20;52.90;;;;;;5033943;28;20217;-72
2023/04/20 10:32:27;;;;;;;14.15;9.30;;;19.20;52.80;;;;;;5033658;28;20227;-72
2023/04/20 10:35:03;;;;;;;13.00;9.68;;;19.20;52.90;;;;;;5027010;28;20278;-73
2023/04/20 10:37:30;;;;;;;14.35;10.18;;;19.20;53.00;;;;;;5034746;28;20190;-72
2023/04/20 10:39:57;;;;;;;14.40;10.68;;;19.20;52.90;;;;;;5034250;28;20187;-72
2023/04/20 10:42:22;;;;;;;17.48;12.32;;;19.20;52.90;;;;;;5033497;28;20234;-72
2023/04/20 10:44:49;;;;;;;17.35;12.70;;;19.20;52.90;;;;;;5034265;28;20218;-71
2023/04/20 10:47:17;;;;;;;14.80;10.55;;;19.20;52.80;;;;;;5033483;28;20565;-72
2023/04/20 10:49:43;;;;;;;14.95;10.93;;;19.20;52.80;;;;;;5032763;28;20203;-72
2023/04/20 10:52:08;;;;;;;14.68;10.90;;;19.20;52.70;;;;;;5034634;28;20279;-71
2023/04/20 10:54:40;;;;;;;22.33;15.73;;;19.20;52.80;;;;;;5044089;28;20187;-73
2023/04/20 10:57:06;;;;;;;18.58;12.80;;;19.30;52.90;;;;;;5033570;28;20194;-71
2023/04/20 10:59:37;;;;;;;17.30;13.77;;;19.30;52.90;;;;;;5034467;28;20285;-72
2023/04/20 11:02:09;;;;;;;17.77;13.32;;;19.30;52.80;;;;;;5033246;28;20294;-71
2023/04/20 11:04:36;;;;;;;18.10;13.90;;;19.30;52.80;;;;;;5033421;28;20195;-71
2023/04/20 11:07:12;;;;;;;14.90;12.35;;;19.30;52.80;;;;;;5033335;28;20666;-71
2023/04/20 11:09:38;;;;;;;17.38;12.20;;;19.30;52.80;;;;;;5024771;28;20195;-71
2023/04/20 11:12:10;;;;;;;19.70;12.90;;;19.30;52.80;;;;;;5033290;28;20223;-71
2023/04/20 11:14:51;;;;;;;16.30;12.32;;;19.30;52.80;;;;;;5049562;28;20195;-71
2023/04/20 11:17:17;;;;;;;14.10;11.43;;;19.30;52.80;;;;;;5034243;28;20275;-71
2023/04/20 11:19:43;;;;;;;16.00;12.15;;;19.30;52.80;;;;;;5032942;28;20274;-71
2023/04/20 11:22:20;;;;;;;16.95;12.52;;;19.30;52.80;;;;;;5034073;28;20215;-71
2023/04/20 11:24:45;;;;;;;18.55;13.48;;;19.30;52.80;;;;;;5032755;28;20277;-73
2023/04/20 11:27:21;;;;;;;16.67;13.15;;;19.30;52.80;;;;;;5033697;28;20201;-72
2023/04/20 11:30:04;;;;;;;16.60;12.45;;;19.20;52.70;;;;;;5032813;28;20205;-72
2023/04/20 11:32:31;;;;;;;18.17;12.77;;;19.20;52.80;;;;;;5032507;28;20302;-72
2023/04/20 11:35:09;;;;;;;19.42;13.27;;;19.30;52.90;;;;;;5033870;28;20281;-73
2023/04/20 11:37:50;;;;;;;20.15;14.15;;;19.20;52.80;;;;;;5032841;28;20241;-72
2023/04/20 11:40:16;;;;;;;18.15;12.73;;;19.20;52.80;;;;;;5032415;28;20187;-73
2023/04/20 11:42:42;;;;;;;18.40;13.32;;;19.20;53.40;;;;;;5033330;28;20224;-72
2023/04/20 11:45:10;;;;;;;15.35;12.10;;;19.20;52.80;;;;;;5033812;28;20188;-73
2023/04/20 11:47:37;;;;;;;17.60;12.80;;;19.20;52.80;;;;;;5016112;28;20199;-73
2023/04/20 11:50:04;;;;;;;16.38;12.40;;;19.20;52.80;;;;;;5033618;28;20203;-73
2023/04/20 11:52:30;;;;;;;17.50;12.75;;;19.20;52.90;;;;;;5031907;28;20258;-72
2023/04/20 11:54:56;;;;;;;16.48;12.13;;;19.20;52.80;;;;;;5024245;28;20175;-73
2023/04/20 11:57:24;;;;;;;18.60;13.13;;;19.20;52.90;;;;;;5033481;28;20187;-73
2023/04/20 11:59:50;;;;;;;18.25;13.38;;;19.20;52.90;;;;;;5032009;28;20269;-73
2023/04/20 12:02:16;;;;;;;17.05;12.52;;;19.20;52.90;;;;;;5032065;28;20286;-72
2023/04/20 12:04:41;;;;;;;14.93;12.07;;;19.20;52.90;;;;;;5031933;28;20195;-72
2023/04/20 12:07:07;;;;;;;24.48;15.52;;;19.20;52.90;;;;;;5015707;28;20249;-72
2023/04/20 12:09:36;;;;;;;21.90;16.00;;;19.30;53.30;;;;;;5048618;28;20218;-72
2023/04/20 12:12:05;;;;;;;24.73;16.25;;;19.20;53.00;;;;;;5033360;28;20230;-72
2023/04/20 12:14:35;;;;;;;21.83;14.82;;;19.20;53.00;;;;;;5033305;28;20234;-72
2023/04/20 12:17:02;;;;;;;22.10;14.48;;;19.20;53.00;;;;;;5024436;28;20278;-71
2023/04/20 12:19:29;;;;;;;19.67;14.15;;;19.20;53.00;;;;;;5031911;28;20180;-71
2023/04/20 12:21:55;;;;;;;19.60;14.20;;;19.20;53.60;;;;;;5032699;28;20221;-71
2023/04/20 12:24:21;;;;;;;18.42;12.88;;;19.20;53.00;;;;;;5031740;28;20195;-71
2023/04/20 12:26:47;;;;;;;18.98;12.82;;;19.20;53.00;;;;;;5032762;28;20195;-73
2023/04/20 12:29:13;;;;;;;18.98;13.13;;;19.20;53.00;;;;;;5015602;28;20241;-72
2023/04/20 12:31:39;;;;;;;18.08;12.48;;;19.20;53.00;;;;;;5032317;28;20317;-72
2023/04/20 12:34:05;;;;;;;17.48;12.57;;;19.20;53.00;;;;;;5031502;28;20227;-72
2023/04/20 12:36:33;;;;;;;16.80;12.18;;;19.20;53.00;;;;;;5031511;28;20266;-72
2023/04/20 12:39:00;;;;;;;16.13;12.07;;;19.20;53.00;;;;;;5039920;28;20216;-72
2023/04/20 12:41:26;;;;;;;15.65;11.93;;;19.20;53.00;;;;;;5032331;28;20237;-72
2023/04/20 12:43:52;;;;;;;17.20;12.85;;;19.20;53.00;;;;;;5031413;28;20195;-72
2023/04/20 12:46:18;;;;;;;17.48;12.98;;;19.20;53.00;;;;;;5035227;28;20270;-73